Sunday, October 21, 2018, 2:51 AM EDT
Back to Local

KFIT, Fitchburg, Fitchburg Municipal Airport

Location: Leominster, MA, United States Lat: 42.552
Local Time: 2:51 AM EDT ( 6:51 GMT) Lon: -71.756
Time Zone: US/Eastern Elev: 347 ft

Show me the last for .
Show Coded

Time T Td Feel RH Dir Speed Gust Alt SLP Vis Weather Sky Remarks
2018-10-21 01:52 47 42 - 83 - Calm - 29.58 29.58 10 SCT085 OVC120 6-hr Min Temp (2am): 44.1°F
6-hr Max Temp (2am): 51.1°F
2018-10-21 00:52 47 42 - 83 - Calm - 29.60 29.60 10 BKN080 OVC100 24-hr Min Temp (1am): 44.1°F
24-hr Max Temp (1am): 62.1°F
2018-10-20 23:52 48 42 47 79 20° 3 - 29.59 29.59 10 OVC090 None
2018-10-20 22:52 47 43 44 86 350° 7 - 29.60 29.60 10 OVC095 None
2018-10-20 21:52 48 43 45 82 10° 7 - 29.59 29.60 10 OVC090 None
2018-10-20 20:52 46 41 - 82 - Calm - 29.59 29.59 10 CLR None
2018-10-20 19:52 51 41 - 68 260° 5 - 29.58 29.58 10 CLR 6-hr Precip Total (8pm): 0.00"
6-hr Min Temp (8pm): 51.1°F
6-hr Max Temp (8pm): 62.1°F
2018-10-20 18:52 52 42 - 68 250° 5 - 29.58 29.58 10 CLR None
2018-10-20 17:52 54 44 - 69 220° 5 - 29.56 29.56 10 SCT100 None
2018-10-20 16:52 56 44 - 64 230° 7 - 29.57 29.57 10 CLR 1-hr Precip Total: Trace
6-hr Precip Total (5pm): 0.00"
2018-10-20 15:52 57 44 - 61 290° 10 - 29.57 29.57 10 -RA OVC060 1-hr Precip Total: Trace
2018-10-20 14:52 60 42 - 51 280° 10 - 29.57 29.57 10 FEW045 FEW055 None
2018-10-20 13:52 60 43 - 53 280° 14 23 29.59 29.59 10 SCT043 OVC060 6-hr Min Temp (2pm): 54.0°F
6-hr Max Temp (2pm): 62.1°F
2018-10-20 12:52 59 45 - 59 Variable 7 - 29.61 29.62 10 BKN040 OVC050 None
2018-10-20 11:52 58 46 - 64 240° 8 - 29.63 29.63 10 SCT029 OVC038 None
2018-10-20 10:52 56 46 - 69 230° 9 18 29.66 29.66 10 FEW028 OVC036 None
2018-10-20 10:07 56 46 - 69 240° 14 25 29.66 - 10 SCT027 BKN047 OVC055 None
2018-10-20 09:52 55 46 - 71 220° 9 18 29.66 29.67 10 BKN025 BKN048 OVC080 None
2018-10-20 08:52 54 45 - 71 210° 12 22 29.66 29.67 10 OVC024 None
2018-10-20 08:23 54 45 - 71 230° 9 21 29.66 - 10 BKN025 BKN030 OVC060 None
2018-10-20 07:52 54 45 - 71 220° 9 25 29.65 29.66 10 SCT027 SCT050 OVC065 6-hr Precip Total (8am): 0.00"
6-hr Min Temp (8am): 53.1°F
6-hr Max Temp (8am): 55.0°F
2018-10-20 07:10 53 44 - 71 190° 10 25 29.65 - 10 BKN029 OVC065 None
2018-10-20 06:52 53 43 - 68 200° 13 16 29.65 29.66 10 FEW029 SCT043 OVC065 None
2018-10-20 05:52 53 42 - 66 190° 10 17 29.67 29.67 10 OVC070 None
2018-10-20 04:52 54 42 - 64 200° 12 - 29.70 29.70 10 OVC075 1-hr Precip Total: Trace
6-hr Precip Total (5am): 0.00"
2018-10-20 03:52 54 42 - 64 220° 10 25 29.73 29.73 10 OVC100 None
2018-10-20 02:52 54 41 - 61 200° 13 21 29.76 29.76 10 FEW120 None

Support USWX by starting your Amazon purchase here.